createdAt,value
2023-05-10T06:56:02.660Z,500.00
2023-05-10T06:57:04.161Z,500.00
2023-05-10T06:58:12.739Z,500.00
2023-05-10T06:59:02.700Z,500.00
2023-05-10T07:00:02.649Z,500.00
2023-05-10T07:01:02.778Z,500.00
2023-05-10T07:02:02.686Z,500.00
2023-05-10T07:03:02.671Z,500.00
2023-05-10T07:04:02.621Z,439.00
2023-05-10T07:05:03.406Z,400.00
2023-05-10T07:06:02.618Z,400.00
2023-05-10T07:07:02.601Z,400.00
2023-05-10T07:08:02.601Z,400.00
2023-05-10T07:09:02.614Z,400.00
2023-05-10T07:10:02.592Z,400.00
2023-05-10T07:11:02.576Z,400.00
2023-05-10T07:12:02.663Z,400.00
2023-05-10T07:13:03.174Z,400.00
2023-05-10T07:14:02.562Z,400.00
2023-05-10T07:15:02.673Z,400.00
2023-05-10T07:16:02.604Z,400.00
2023-05-10T07:17:02.551Z,400.00
2023-05-10T07:18:02.658Z,400.00
2023-05-10T07:19:02.532Z,400.00
2023-05-10T07:20:02.539Z,400.00
2023-05-10T07:21:02.569Z,400.00
2023-05-10T07:22:02.499Z,400.00
2023-05-10T07:23:02.522Z,411.00
2023-05-10T07:24:02.592Z,433.00
2023-05-10T07:25:02.498Z,459.00
2023-05-10T07:26:02.484Z,495.00
2023-05-10T07:27:02.618Z,500.00
2023-05-10T07:28:02.901Z,509.00
2023-05-10T07:29:02.507Z,526.00
2023-05-10T07:30:02.552Z,529.00
2023-05-10T07:31:02.708Z,523.00
2023-05-10T07:32:03.657Z,537.00
2023-05-10T07:33:02.675Z,537.00
2023-05-10T07:34:02.622Z,509.00
2023-05-10T07:35:02.608Z,508.00
2023-05-10T07:36:02.657Z,521.00
2023-05-10T07:37:02.587Z,526.00
2023-05-10T07:38:02.646Z,530.00
2023-05-10T07:39:02.558Z,534.00
2023-05-10T07:40:02.609Z,539.00
2023-05-10T07:41:02.572Z,542.00
2023-05-10T07:42:02.575Z,536.00
2023-05-10T07:43:02.679Z,537.00
2023-05-10T07:44:02.560Z,543.00
2023-05-10T07:45:02.545Z,546.00
2023-05-10T07:46:02.663Z,554.00
2023-05-10T07:47:02.518Z,555.00
2023-05-10T07:48:04.127Z,550.00
2023-05-10T07:49:02.499Z,551.00
2023-05-10T07:50:02.622Z,548.00
2023-05-10T07:51:02.482Z,554.00
2023-05-10T07:52:02.482Z,551.00
2023-05-10T07:53:02.492Z,551.00
2023-05-10T07:54:03.524Z,538.00
2023-05-10T07:55:02.610Z,536.00
2023-05-10T07:56:02.547Z,539.00
2023-05-10T07:57:02.643Z,545.00
2023-05-10T07:58:02.708Z,547.00
2023-05-10T07:59:02.704Z,545.00
2023-05-10T08:00:03.112Z,545.00
2023-05-10T08:01:02.866Z,533.00
2023-05-10T08:02:02.901Z,531.00
2023-05-10T08:03:03.010Z,531.00
2023-05-10T08:04:03.163Z,534.00
2023-05-10T08:05:03.009Z,531.00
2023-05-10T08:06:03.069Z,530.00
2023-05-10T08:07:03.114Z,532.00
2023-05-10T08:08:03.283Z,543.00
2023-05-10T08:09:03.229Z,542.00
2023-05-10T08:10:03.259Z,546.00
2023-05-10T08:11:03.327Z,541.00
2023-05-10T08:12:03.468Z,538.00
2023-05-10T08:13:03.415Z,524.00
2023-05-10T08:14:03.613Z,518.00
2023-05-10T08:15:03.612Z,524.00
2023-05-10T08:16:03.566Z,527.00
2023-05-10T08:17:03.597Z,523.00
2023-05-10T08:18:03.591Z,534.00
2023-05-10T08:19:03.668Z,535.00
2023-05-10T08:20:03.613Z,541.00
2023-05-10T08:21:03.612Z,522.00
2023-05-10T08:22:03.685Z,431.00
2023-05-10T08:23:03.735Z,400.00
2023-05-10T08:24:03.794Z,428.00
2023-05-10T08:25:04.115Z,501.00
2023-05-10T08:26:03.762Z,523.00
2023-05-10T08:27:03.787Z,517.00
2023-05-10T08:28:03.799Z,522.00
2023-05-10T08:29:03.788Z,544.00
2023-05-10T08:30:04.150Z,575.00
2023-05-10T08:31:03.812Z,606.00
2023-05-10T08:32:03.800Z,625.00
2023-05-10T08:33:03.897Z,636.00
2023-05-10T08:34:03.782Z,648.00
2023-05-10T08:35:04.142Z,650.00
2023-05-10T08:36:03.816Z,685.00
2023-05-10T08:37:03.856Z,738.00
2023-05-10T08:38:03.923Z,792.00
2023-05-10T08:39:04.038Z,787.00
2023-05-10T08:40:04.172Z,823.00
2023-05-10T08:41:05.646Z,860.00
2023-05-10T08:42:04.130Z,886.00
2023-05-10T08:43:04.196Z,904.00
2023-05-10T08:44:04.267Z,873.00
2023-05-10T08:45:04.652Z,917.00
2023-05-10T08:46:04.300Z,934.00
2023-05-10T08:47:04.465Z,952.00
2023-05-10T08:48:04.437Z,946.00
2023-05-10T08:49:04.388Z,952.00
2023-05-10T08:50:04.431Z,961.00
2023-05-10T08:51:04.456Z,971.00
2023-05-10T08:52:04.498Z,975.00
2023-05-10T08:53:04.619Z,978.00
2023-05-10T08:54:04.618Z,970.00
2023-05-10T08:55:04.746Z,945.00
2023-05-10T08:56:04.625Z,952.00
2023-05-10T08:57:04.632Z,908.00
2023-05-10T08:58:04.702Z,709.00
2023-05-10T08:59:04.704Z,613.00
2023-05-10T09:00:04.755Z,585.00
2023-05-10T09:01:04.826Z,601.00
2023-05-10T09:02:04.816Z,560.00
2023-05-10T09:03:04.903Z,540.00
2023-05-10T09:04:04.928Z,517.00
2023-05-10T09:05:04.905Z,531.00
2023-05-10T09:06:04.825Z,557.00
2023-05-10T09:07:04.819Z,577.00
2023-05-10T09:08:04.771Z,521.00
2023-05-10T09:09:04.750Z,498.00
2023-05-10T09:10:05.651Z,505.00
2023-05-10T09:11:04.799Z,522.00
2023-05-10T09:12:04.781Z,501.00
2023-05-10T09:13:04.789Z,528.00
2023-05-10T09:14:04.826Z,522.00
2023-05-10T09:15:06.136Z,551.00
2023-05-10T09:16:17.471Z,551.00
2023-05-10T09:17:04.994Z,551.00
2023-05-10T09:18:04.873Z,552.00
2023-05-10T09:19:04.959Z,555.00
2023-05-10T09:20:04.854Z,571.00
2023-05-10T09:21:04.819Z,603.00
2023-05-10T09:22:04.878Z,647.00
2023-05-10T09:23:04.797Z,770.00
2023-05-10T09:24:04.816Z,805.00
2023-05-10T09:25:05.166Z,760.00
2023-05-10T09:26:05.169Z,721.00
2023-05-10T09:27:04.777Z,665.00
2023-05-10T09:28:04.787Z,685.00
2023-05-10T09:29:04.757Z,662.00
2023-05-10T09:30:04.842Z,679.00
2023-05-10T09:31:05.229Z,702.00
2023-05-10T09:32:04.763Z,746.00
2023-05-10T09:33:04.765Z,752.00
2023-05-10T09:34:04.826Z,751.00
2023-05-10T09:35:04.731Z,765.00
2023-05-10T09:36:05.146Z,773.00
2023-05-10T09:37:04.825Z,790.00
2023-05-10T09:38:04.786Z,795.00
2023-05-10T09:39:04.789Z,804.00
2023-05-10T09:40:04.815Z,806.00
2023-05-10T09:41:04.809Z,811.00
2023-05-10T09:42:04.879Z,814.00
2023-05-10T09:43:04.767Z,833.00
2023-05-10T09:44:04.777Z,831.00
2023-05-10T09:45:04.798Z,806.00
2023-05-10T09:46:05.243Z,811.00
2023-05-10T09:47:04.759Z,814.00
2023-05-10T09:48:04.832Z,805.00
2023-05-10T09:49:04.723Z,806.00
2023-05-10T09:50:04.810Z,811.00
2023-05-10T09:51:05.197Z,814.00
2023-05-10T09:52:04.760Z,807.00
2023-05-10T09:53:04.956Z,810.00
2023-05-10T09:54:04.837Z,814.00
2023-05-10T09:55:04.808Z,812.00
2023-05-10T09:56:05.162Z,792.00
2023-05-10T09:57:04.948Z,809.00
2023-05-10T09:58:05.058Z,781.00
2023-05-10T09:59:05.066Z,782.00
2023-05-10T10:00:05.040Z,784.00
2023-05-10T10:01:05.160Z,776.00
2023-05-10T10:02:05.187Z,753.00
2023-05-10T10:03:05.641Z,778.00
2023-05-10T10:04:05.231Z,779.00
2023-05-10T10:05:05.370Z,769.00
2023-05-10T10:06:06.804Z,785.00
2023-05-10T10:07:05.427Z,785.00
2023-05-10T10:08:05.351Z,786.00
2023-05-10T10:09:05.308Z,721.00
2023-05-10T10:10:05.366Z,724.00
2023-05-10T10:11:05.295Z,706.00
2023-05-10T10:12:05.323Z,716.00
2023-05-10T10:13:05.325Z,661.00
2023-05-10T10:14:06.224Z,651.00
2023-05-10T10:15:05.325Z,645.00
2023-05-10T10:16:05.901Z,644.00
2023-05-10T10:17:07.214Z,662.00
2023-05-10T10:18:05.410Z,652.00
2023-05-10T10:19:06.250Z,666.00
2023-05-10T10:20:05.263Z,641.00
2023-05-10T10:21:05.721Z,400.00
2023-05-10T10:22:05.464Z,400.00
2023-05-10T10:23:05.271Z,400.00
2023-05-10T10:24:05.228Z,400.00
2023-05-10T10:25:05.283Z,400.00
2023-05-10T10:26:08.185Z,400.00
2023-05-10T10:27:05.203Z,400.00
2023-05-10T10:28:05.198Z,400.00
2023-05-10T10:29:05.226Z,409.00
2023-05-10T10:30:05.191Z,486.00
2023-05-10T10:31:05.244Z,557.00
2023-05-10T10:32:05.243Z,558.00
2023-05-10T10:33:13.269Z,568.00
2023-05-10T10:34:05.190Z,561.00
2023-05-10T10:35:05.152Z,582.00
2023-05-10T10:36:05.219Z,623.00
2023-05-10T10:37:05.196Z,739.00
2023-05-10T10:38:05.151Z,872.00
2023-05-10T10:39:05.146Z,1016.00
2023-05-10T10:40:05.154Z,982.00
2023-05-10T10:41:05.169Z,1072.00
2023-05-10T10:42:05.749Z,1059.00
2023-05-10T10:43:05.734Z,1106.00
2023-05-10T10:44:05.219Z,951.00
2023-05-10T10:45:05.076Z,919.00
2023-05-10T10:46:05.115Z,987.00
2023-05-10T10:47:05.100Z,990.00
2023-05-10T10:48:05.062Z,990.00
2023-05-10T10:49:05.780Z,958.00
2023-05-10T10:50:05.089Z,920.00
2023-05-10T10:51:05.068Z,879.00
2023-05-10T10:52:05.057Z,984.00
2023-05-10T10:53:05.047Z,987.00
2023-05-10T10:54:05.044Z,985.00
2023-05-10T10:55:05.010Z,1017.00
2023-05-10T10:56:05.120Z,976.00
2023-05-10T10:57:05.019Z,857.00
2023-05-10T10:58:05.009Z,804.00
2023-05-10T10:59:04.997Z,737.00
2023-05-10T11:00:04.984Z,753.00
2023-05-10T11:01:05.118Z,807.00
2023-05-10T11:02:05.250Z,781.00
2023-05-10T11:03:05.041Z,796.00
2023-05-10T11:04:05.045Z,887.00
2023-05-10T11:05:04.939Z,891.00
2023-05-10T11:06:05.097Z,956.00
2023-05-10T11:07:04.927Z,943.00
2023-05-10T11:08:04.934Z,1006.00
2023-05-10T11:09:04.904Z,1007.00
2023-05-10T11:10:05.693Z,1007.00
2023-05-10T11:11:04.907Z,986.00
2023-05-10T11:12:04.912Z,1014.00
2023-05-10T11:13:04.934Z,960.00
2023-05-10T11:14:04.912Z,792.00
2023-05-10T11:15:04.978Z,612.00
2023-05-10T11:16:05.216Z,539.00
2023-05-10T11:17:04.965Z,539.00
2023-05-10T11:18:04.924Z,540.00
2023-05-10T11:19:04.892Z,523.00
2023-05-10T11:20:04.859Z,537.00
2023-05-10T11:21:05.045Z,518.00
2023-05-10T11:22:04.953Z,500.00
2023-05-10T11:23:04.960Z,499.00
2023-05-10T11:24:04.985Z,500.00
2023-05-10T11:25:04.989Z,470.00
2023-05-10T11:26:04.963Z,471.00
2023-05-10T11:27:04.934Z,437.00
2023-05-10T11:28:05.038Z,409.00
2023-05-10T11:29:04.943Z,400.00
2023-05-10T11:30:05.095Z,400.00
2023-05-10T11:31:04.972Z,400.00
2023-05-10T11:32:04.932Z,451.00
2023-05-10T11:33:04.973Z,463.00
2023-05-10T11:34:04.920Z,500.00
2023-05-10T11:35:04.925Z,502.00
2023-05-10T11:36:04.957Z,495.00
2023-05-10T11:37:05.015Z,508.00
2023-05-10T11:38:05.027Z,513.00
2023-05-10T11:39:05.113Z,502.00
2023-05-10T11:40:05.704Z,503.00
2023-05-10T11:41:05.114Z,504.00
2023-05-10T11:42:05.115Z,505.00
2023-05-10T11:43:05.052Z,502.00
2023-05-10T11:44:05.068Z,502.00
2023-05-10T11:45:05.077Z,493.00
2023-05-10T11:46:05.127Z,485.00
2023-05-10T11:47:05.042Z,477.00
2023-05-10T11:48:05.720Z,491.00
2023-05-10T11:49:05.299Z,500.00
2023-05-10T11:50:05.135Z,507.00
2023-05-10T11:51:05.016Z,502.00
2023-05-10T11:52:05.010Z,523.00
2023-05-10T11:53:05.001Z,538.00
2023-05-10T11:54:05.059Z,539.00
2023-05-10T11:55:05.127Z,529.00
2023-05-10T11:56:05.227Z,533.00
2023-05-10T11:57:05.263Z,527.00
2023-05-10T11:58:05.284Z,496.00
2023-05-10T11:59:05.381Z,507.00
2023-05-10T12:00:05.391Z,518.00
2023-05-10T12:01:05.441Z,530.00
2023-05-10T12:02:05.442Z,530.00
2023-05-10T12:03:06.375Z,533.00
2023-05-10T12:04:05.715Z,541.00
2023-05-10T12:05:05.951Z,548.00
2023-05-10T12:06:05.717Z,554.00
2023-05-10T12:07:05.415Z,606.00
2023-05-10T12:08:05.434Z,636.00
2023-05-10T12:09:05.445Z,858.00
2023-05-10T12:10:05.450Z,840.00
2023-05-10T12:11:06.248Z,897.00
2023-05-10T12:12:05.523Z,938.00
2023-05-10T12:13:06.224Z,991.00
2023-05-10T12:14:05.659Z,1038.00
2023-05-10T12:15:05.675Z,1081.00
2023-05-10T12:16:05.796Z,1121.00
2023-05-10T12:17:05.854Z,1103.00
2023-05-10T12:18:06.819Z,1147.00
2023-05-10T12:19:05.948Z,1258.00
2023-05-10T12:20:06.711Z,1263.00
2023-05-10T12:21:05.935Z,1296.00
2023-05-10T12:22:05.823Z,1342.00
2023-05-10T12:23:05.812Z,1407.00
2023-05-10T12:24:05.805Z,1533.00
2023-05-10T12:25:05.773Z,1562.00
2023-05-10T12:26:05.786Z,1589.00
2023-05-10T12:27:05.788Z,1603.00
2023-05-10T12:28:05.805Z,1617.00
2023-05-10T12:29:06.738Z,1605.00
2023-05-10T12:30:05.887Z,1617.00
2023-05-10T12:31:05.737Z,1619.00
2023-05-10T12:32:05.741Z,1636.00
2023-05-10T12:33:05.804Z,1641.00
2023-05-10T12:34:05.714Z,1640.00
2023-05-10T12:35:05.802Z,1640.00
2023-05-10T12:36:05.745Z,1636.00
2023-05-10T12:37:05.678Z,1643.00
2023-05-10T12:38:05.685Z,1651.00
2023-05-10T12:39:05.692Z,1661.00
2023-05-10T12:40:05.695Z,1663.00
2023-05-10T12:41:05.719Z,1655.00
2023-05-10T12:42:05.738Z,1659.00
2023-05-10T12:43:05.683Z,1669.00
2023-05-10T12:44:05.695Z,1691.00
2023-05-10T12:45:05.727Z,1697.00
2023-05-10T12:46:06.819Z,1723.00
2023-05-10T12:47:05.740Z,1723.00
2023-05-10T12:48:05.794Z,1724.00
2023-05-10T12:49:09.620Z,1713.00
2023-05-10T12:50:05.720Z,1713.00
2023-05-10T12:51:05.714Z,1705.00
2023-05-10T12:52:05.716Z,1700.00
2023-05-10T12:53:05.704Z,1697.00
2023-05-10T12:54:05.703Z,1679.00
2023-05-10T12:55:05.677Z,1676.00
2023-05-10T12:56:05.785Z,1679.00
2023-05-10T12:57:05.797Z,1667.00
2023-05-10T12:58:05.663Z,1679.00
2023-05-10T12:59:05.673Z,1680.00
2023-05-10T13:00:06.259Z,1686.00
2023-05-10T13:01:06.260Z,1680.00
2023-05-10T13:02:05.646Z,1686.00
2023-05-10T13:03:06.240Z,1693.00
2023-05-10T13:04:05.747Z,1694.00
2023-05-10T13:05:05.688Z,1678.00
2023-05-10T13:06:05.593Z,1671.00
2023-05-10T13:07:05.606Z,1682.00
2023-05-10T13:08:05.586Z,1689.00
2023-05-10T13:09:05.605Z,1666.00
2023-05-10T13:10:05.590Z,1668.00
2023-05-10T13:11:05.564Z,1671.00
2023-05-10T13:12:05.723Z,1658.00
2023-05-10T13:13:05.559Z,1660.00
2023-05-10T13:14:05.575Z,1644.00
2023-05-10T13:15:05.643Z,1640.00
2023-05-10T13:16:05.546Z,1653.00
2023-05-10T13:17:05.634Z,1640.00
2023-05-10T13:18:05.628Z,1639.00
2023-05-10T13:19:05.616Z,1638.00
2023-05-10T13:20:05.567Z,1629.00
2023-05-10T13:21:05.527Z,1622.00
2023-05-10T13:22:05.728Z,1613.00
2023-05-10T13:23:05.571Z,1608.00
2023-05-10T13:24:05.469Z,1601.00
2023-05-10T13:25:05.446Z,1608.00
2023-05-10T13:26:05.686Z,1617.00
2023-05-10T13:27:06.243Z,1619.00
2023-05-10T13:28:05.442Z,1627.00
2023-05-10T13:29:06.291Z,1619.00
2023-05-10T13:30:05.477Z,1617.00
2023-05-10T13:31:05.492Z,1618.00
2023-05-10T13:32:05.517Z,1605.00
2023-05-10T13:33:05.493Z,1607.00
2023-05-10T13:34:05.402Z,1600.00
2023-05-10T13:35:05.384Z,1561.00
2023-05-10T13:36:05.402Z,1580.00
2023-05-10T13:37:05.387Z,1571.00
2023-05-10T13:38:05.386Z,1590.00
2023-05-10T13:39:05.397Z,1582.00
2023-05-10T13:40:05.335Z,1583.00
2023-05-10T13:41:05.434Z,1531.00
2023-05-10T13:42:05.349Z,1505.00
2023-05-10T13:43:05.344Z,1530.00
2023-05-10T13:44:05.511Z,1532.00
2023-05-10T13:45:05.370Z,1504.00
2023-05-10T13:46:05.338Z,1516.00
2023-05-10T13:47:05.378Z,1508.00
2023-05-10T13:48:05.380Z,1480.00
2023-05-10T13:49:05.292Z,1499.00
2023-05-10T13:50:05.802Z,1478.00
2023-05-10T13:51:06.322Z,1447.00
2023-05-10T13:52:07.272Z,1445.00
2023-05-10T13:53:05.244Z,1448.00
2023-05-10T13:54:05.266Z,1448.00
2023-05-10T13:55:05.345Z,1450.00
2023-05-10T13:56:05.273Z,1443.00
2023-05-10T13:57:05.278Z,1432.00
2023-05-10T13:58:05.283Z,1411.00
2023-05-10T13:59:05.236Z,1411.00
2023-05-10T14:00:05.411Z,1404.00
2023-05-10T14:01:05.252Z,1387.00
2023-05-10T14:02:05.371Z,1384.00
2023-05-10T14:03:05.379Z,1392.00
2023-05-10T14:04:05.352Z,1398.00
2023-05-10T14:05:05.232Z,1373.00
2023-05-10T14:06:05.197Z,1367.00
2023-05-10T14:07:05.294Z,1354.00
2023-05-10T14:08:05.201Z,1357.00
2023-05-10T14:09:06.187Z,1352.00
2023-05-10T14:10:05.844Z,1327.00
2023-05-10T14:11:05.157Z,1329.00
2023-05-10T14:12:05.190Z,1286.00
2023-05-10T14:13:05.124Z,1281.00
2023-05-10T14:14:05.191Z,1271.00
2023-05-10T14:15:05.190Z,1276.00
2023-05-10T14:16:05.178Z,1246.00
2023-05-10T14:17:08.726Z,1246.00
2023-05-10T14:18:05.223Z,1247.00
2023-05-10T14:19:05.179Z,1246.00
2023-05-10T14:20:05.121Z,1246.00
2023-05-10T14:21:05.140Z,1215.00
2023-05-10T14:22:05.150Z,1177.00
2023-05-10T14:23:05.107Z,1195.00
2023-05-10T14:24:05.093Z,1185.00
2023-05-10T14:25:05.333Z,1180.00
2023-05-10T14:26:05.083Z,1168.00
2023-05-10T14:27:05.086Z,1144.00
2023-05-10T14:28:05.140Z,1182.00
2023-05-10T14:29:05.851Z,1155.00
2023-05-10T14:30:05.073Z,1152.00
2023-05-10T14:31:05.137Z,1149.00
2023-05-10T14:32:05.084Z,1135.00
2023-05-10T14:33:05.049Z,1122.00
2023-05-10T14:34:05.046Z,1101.00
2023-05-10T14:35:05.033Z,1088.00
2023-05-10T14:36:05.101Z,1104.00
2023-05-10T14:37:05.293Z,1126.00
2023-05-10T14:38:05.011Z,1125.00
2023-05-10T14:39:05.001Z,1140.00
2023-05-10T14:40:05.071Z,1118.00
2023-05-10T14:41:04.971Z,1093.00
2023-05-10T14:42:04.994Z,1131.00
2023-05-10T14:43:04.966Z,1113.00
2023-05-10T14:44:04.955Z,1086.00
2023-05-10T14:45:04.954Z,1073.00
2023-05-10T14:46:04.989Z,1100.00
2023-05-10T14:47:05.021Z,1096.00
2023-05-10T14:48:07.843Z,1106.00
2023-05-10T14:49:04.957Z,1134.00
2023-05-10T14:50:04.919Z,1123.00
2023-05-10T14:51:04.930Z,1100.00
2023-05-10T14:52:04.909Z,1109.00
2023-05-10T14:53:04.915Z,1101.00
2023-05-10T14:54:04.915Z,1094.00
2023-05-10T14:55:04.886Z,1110.00
2023-05-10T14:56:04.865Z,1075.00
2023-05-10T14:57:04.860Z,1056.00
2023-05-10T14:58:04.852Z,1064.00
2023-05-10T14:59:04.831Z,1045.00
2023-05-10T15:00:04.828Z,1073.00
2023-05-10T15:01:04.846Z,1069.00
2023-05-10T15:02:04.855Z,1005.00
2023-05-10T15:03:04.898Z,1031.00
2023-05-10T15:04:04.806Z,1024.00
2023-05-10T15:05:04.817Z,1013.00
2023-05-10T15:06:04.810Z,1021.00
2023-05-10T15:07:04.946Z,965.00
2023-05-10T15:08:04.788Z,958.00
2023-05-10T15:09:04.937Z,963.00
2023-05-10T15:10:04.878Z,971.00
2023-05-10T15:11:04.756Z,963.00
2023-05-10T15:12:04.831Z,955.00
2023-05-10T15:13:04.767Z,955.00
2023-05-10T15:14:04.755Z,948.00
2023-05-10T15:15:04.784Z,939.00
2023-05-10T15:16:04.780Z,919.00
2023-05-10T15:17:04.765Z,929.00
2023-05-10T15:18:04.755Z,960.00
2023-05-10T15:19:04.745Z,956.00
2023-05-10T15:20:04.765Z,974.00
2023-05-10T15:21:04.712Z,952.00
2023-05-10T15:22:04.722Z,935.00
2023-05-10T15:23:04.675Z,935.00
2023-05-10T15:24:04.669Z,927.00
2023-05-10T15:25:04.668Z,917.00
2023-05-10T15:26:04.671Z,883.00
2023-05-10T15:27:04.716Z,894.00
2023-05-10T15:28:04.624Z,906.00
2023-05-10T15:29:05.295Z,924.00
2023-05-10T15:30:05.326Z,924.00
2023-05-10T15:31:04.853Z,889.00
2023-05-10T15:32:04.922Z,902.00
2023-05-10T15:33:04.830Z,874.00
2023-05-10T15:34:04.764Z,865.00
2023-05-10T15:35:04.767Z,887.00
2023-05-10T15:36:04.804Z,896.00
2023-05-10T15:37:04.802Z,857.00
2023-05-10T15:38:04.848Z,883.00
2023-05-10T15:39:04.837Z,895.00
2023-05-10T15:40:05.153Z,872.00
2023-05-10T15:41:04.925Z,873.00
2023-05-10T15:42:04.868Z,866.00
2023-05-10T15:43:04.905Z,875.00
2023-05-10T15:44:04.802Z,879.00
2023-05-10T15:45:04.804Z,863.00
2023-05-10T15:46:04.798Z,853.00
2023-05-10T15:47:04.894Z,818.00
2023-05-10T15:48:04.873Z,825.00
2023-05-10T15:49:04.806Z,835.00
2023-05-10T15:50:04.784Z,837.00
2023-05-10T15:51:04.782Z,836.00
2023-05-10T15:52:04.755Z,831.00
2023-05-10T15:53:04.788Z,809.00
2023-05-10T15:54:07.718Z,804.00
2023-05-10T15:55:04.754Z,806.00
2023-05-10T15:56:04.805Z,785.00
2023-05-10T15:57:04.818Z,762.00
2023-05-10T15:58:04.818Z,778.00
2023-05-10T15:59:04.741Z,768.00
2023-05-10T16:00:04.744Z,765.00
2023-05-10T16:01:04.757Z,751.00
2023-05-10T16:02:04.766Z,753.00
2023-05-10T16:03:04.830Z,773.00
2023-05-10T16:04:04.738Z,744.00
2023-05-10T16:05:04.680Z,740.00
2023-05-10T16:06:05.384Z,727.00
2023-05-10T16:07:04.651Z,705.00
2023-05-10T16:08:04.663Z,688.00
2023-05-10T16:09:04.654Z,708.00
2023-05-10T16:10:04.856Z,719.00
2023-05-10T16:11:04.665Z,673.00
2023-05-10T16:12:04.638Z,684.00
2023-05-10T16:13:04.662Z,663.00
2023-05-10T16:14:07.039Z,660.00
2023-05-10T16:15:04.828Z,661.00
2023-05-10T16:16:04.873Z,661.00
2023-05-10T16:17:05.040Z,657.00
2023-05-10T16:18:04.905Z,663.00
2023-05-10T16:19:04.889Z,660.00
2023-05-10T16:20:04.936Z,662.00
2023-05-10T16:21:04.954Z,660.00
2023-05-10T16:22:04.845Z,656.00
2023-05-10T16:23:04.879Z,657.00
2023-05-10T16:24:05.837Z,654.00
2023-05-10T16:25:05.815Z,656.00
2023-05-10T16:26:04.845Z,646.00
2023-05-10T16:27:04.865Z,646.00
2023-05-10T16:28:04.867Z,651.00
2023-05-10T16:29:04.843Z,647.00
2023-05-10T16:30:05.414Z,629.00
2023-05-10T16:31:04.894Z,640.00
2023-05-10T16:32:04.793Z,640.00
2023-05-10T16:33:04.844Z,637.00
2023-05-10T16:34:04.778Z,644.00
2023-05-10T16:35:04.781Z,646.00
2023-05-10T16:36:04.817Z,647.00
2023-05-10T16:37:05.333Z,648.00
2023-05-10T16:38:04.830Z,648.00
2023-05-10T16:39:06.329Z,649.00
2023-05-10T16:40:04.746Z,647.00
2023-05-10T16:41:04.758Z,638.00
2023-05-10T16:42:04.726Z,645.00
2023-05-10T16:43:04.790Z,642.00
2023-05-10T16:44:04.742Z,643.00
2023-05-10T16:45:04.716Z,646.00
2023-05-10T16:46:04.941Z,633.00
2023-05-10T16:47:04.708Z,625.00
2023-05-10T16:48:04.787Z,622.00
2023-05-10T16:49:04.702Z,626.00
2023-05-10T16:50:04.663Z,630.00
2023-05-10T16:51:04.727Z,639.00
2023-05-10T16:52:04.652Z,626.00
2023-05-10T16:53:04.721Z,636.00
2023-05-10T16:54:04.658Z,631.00
2023-05-10T16:55:05.369Z,639.00
2023-05-10T16:56:04.661Z,632.00
2023-05-10T16:57:04.641Z,623.00
2023-05-10T16:58:04.659Z,621.00
2023-05-10T16:59:05.372Z,620.00
2023-05-10T17:00:04.669Z,615.00
2023-05-10T17:01:04.662Z,613.00
2023-05-10T17:02:04.716Z,615.00
2023-05-10T17:03:04.940Z,618.00
2023-05-10T17:04:04.630Z,617.00
2023-05-10T17:05:04.584Z,619.00
2023-05-10T17:06:04.568Z,610.00
2023-05-10T17:07:04.565Z,608.00
2023-05-10T17:08:04.624Z,608.00
2023-05-10T17:09:04.552Z,615.00
2023-05-10T17:10:04.538Z,602.00
2023-05-10T17:11:04.545Z,614.00
2023-05-10T17:12:04.521Z,622.00
2023-05-10T17:13:04.513Z,613.00
2023-05-10T17:14:04.503Z,624.00
2023-05-10T17:15:04.527Z,624.00
2023-05-10T17:16:04.840Z,631.00
2023-05-10T17:17:04.538Z,633.00
2023-05-10T17:18:04.500Z,629.00
2023-05-10T17:19:04.592Z,634.00
2023-05-10T17:20:04.463Z,622.00
2023-05-10T17:21:04.495Z,623.00
2023-05-10T17:22:04.462Z,629.00
2023-05-10T17:23:04.839Z,621.00
2023-05-10T17:24:04.447Z,623.00
2023-05-10T17:25:04.420Z,617.00
2023-05-10T17:26:04.446Z,620.00
2023-05-10T17:27:04.478Z,619.00
2023-05-10T17:28:04.863Z,621.00
2023-05-10T17:29:04.418Z,636.00
2023-05-10T17:30:04.561Z,635.00
2023-05-10T17:31:04.454Z,630.00
2023-05-10T17:32:04.432Z,626.00
2023-05-10T17:33:04.450Z,621.00
2023-05-10T17:34:05.843Z,613.00
2023-05-10T17:35:04.444Z,613.00
2023-05-10T17:36:04.464Z,617.00
2023-05-10T17:37:04.489Z,614.00
2023-05-10T17:38:04.543Z,610.00
2023-05-10T17:39:04.613Z,613.00
2023-05-10T17:40:04.617Z,613.00
2023-05-10T17:41:04.626Z,610.00
2023-05-10T17:42:04.665Z,616.00
2023-05-10T17:43:04.699Z,610.00
2023-05-10T17:44:04.728Z,602.00
2023-05-10T17:45:04.854Z,604.00
2023-05-10T17:46:04.855Z,609.00
2023-05-10T17:47:04.970Z,603.00
2023-05-10T17:48:05.001Z,611.00
2023-05-10T17:49:06.870Z,610.00
2023-05-10T17:50:05.043Z,611.00
2023-05-10T17:51:05.023Z,614.00
2023-05-10T17:52:05.070Z,614.00
2023-05-10T17:53:05.118Z,615.00
2023-05-10T17:54:05.170Z,616.00
2023-05-10T17:55:05.240Z,625.00
2023-05-10T17:56:05.252Z,635.00
2023-05-10T17:57:05.291Z,633.00
2023-05-10T17:58:05.334Z,636.00
2023-05-10T17:59:05.378Z,647.00
2023-05-10T18:00:05.434Z,646.00
2023-05-10T18:01:05.494Z,663.00
2023-05-10T18:02:05.478Z,744.00
2023-05-10T18:03:05.639Z,832.00
2023-05-10T18:04:05.567Z,834.00
2023-05-10T18:05:05.650Z,846.00
2023-05-10T18:06:05.637Z,853.00
2023-05-10T18:07:05.521Z,828.00
2023-05-10T18:08:05.860Z,792.00
2023-05-10T18:09:06.349Z,793.00
2023-05-10T18:10:05.500Z,765.00
2023-05-10T18:11:05.491Z,753.00
2023-05-10T18:12:05.496Z,762.00
2023-05-10T18:13:08.038Z,765.00
2023-05-10T18:14:05.477Z,761.00
2023-05-10T18:15:05.511Z,754.00
2023-05-10T18:16:05.461Z,754.00
2023-05-10T18:17:05.551Z,771.00
2023-05-10T18:18:05.470Z,769.00
2023-05-10T18:19:05.497Z,751.00
2023-05-10T18:20:05.446Z,754.00
2023-05-10T18:21:05.460Z,767.00
2023-05-10T18:22:05.821Z,755.00
2023-05-10T18:23:05.421Z,755.00
2023-05-10T18:24:10.386Z,755.00
2023-05-10T18:25:05.400Z,755.00
2023-05-10T18:26:06.361Z,741.00
2023-05-10T18:27:06.350Z,740.00
2023-05-10T18:28:06.377Z,723.00
2023-05-10T18:29:05.378Z,756.00
2023-05-10T18:30:05.412Z,756.00
2023-05-10T18:31:05.402Z,761.00
2023-05-10T18:32:05.400Z,773.00
2023-05-10T18:33:05.408Z,717.00
2023-05-10T18:34:05.356Z,716.00
2023-05-10T18:35:05.331Z,710.00
2023-05-10T18:36:05.881Z,698.00
2023-05-10T18:37:05.335Z,694.00
2023-05-10T18:38:05.338Z,658.00
2023-05-10T18:39:05.339Z,652.00
2023-05-10T18:40:05.297Z,654.00
2023-05-10T18:41:05.318Z,659.00
2023-05-10T18:42:05.301Z,659.00
2023-05-10T18:43:05.325Z,660.00
2023-05-10T18:44:05.321Z,650.00
2023-05-10T18:45:05.282Z,644.00
2023-05-10T18:46:05.290Z,651.00
2023-05-10T18:47:05.865Z,645.00
2023-05-10T18:48:05.337Z,643.00
2023-05-10T18:49:05.285Z,645.00
2023-05-10T18:50:06.903Z,648.00
2023-05-10T18:51:05.272Z,651.00
2023-05-10T18:52:05.260Z,648.00
2023-05-10T18:53:05.241Z,663.00
2023-05-10T18:54:05.253Z,648.00
2023-05-10T18:55:05.265Z,655.00
2023-05-10T18:56:05.209Z,651.00
2023-05-10T18:57:05.198Z,651.00
2023-05-10T18:58:05.252Z,653.00
2023-05-10T18:59:05.369Z,652.00
2023-05-10T19:00:05.170Z,654.00
2023-05-10T19:01:05.898Z,652.00
2023-05-10T19:02:05.159Z,656.00
2023-05-10T19:03:05.215Z,662.00
2023-05-10T19:04:05.423Z,687.00
2023-05-10T19:05:05.128Z,704.00
2023-05-10T19:06:05.157Z,717.00
2023-05-10T19:07:05.905Z,744.00
2023-05-10T19:08:05.118Z,729.00
2023-05-10T19:09:05.129Z,734.00
2023-05-10T19:10:05.162Z,693.00
2023-05-10T19:11:05.240Z,698.00
2023-05-10T19:12:05.223Z,700.00
2023-05-10T19:13:05.280Z,702.00
2023-05-10T19:14:05.378Z,708.00
2023-05-10T19:15:05.231Z,729.00
2023-05-10T19:16:05.371Z,701.00
2023-05-10T19:17:06.384Z,709.00
2023-05-10T19:18:05.201Z,731.00